createdAt,value
2023-01-23T00:01:19.435Z,68.64
2023-01-23T00:03:50.546Z,67.40
2023-01-23T00:06:21.865Z,70.87
2023-01-23T00:08:52.346Z,74.20
2023-01-23T00:11:25.964Z,63.94
2023-01-23T00:13:57.900Z,68.14
2023-01-23T00:16:32.152Z,71.26
2023-01-23T00:19:03.583Z,65.86
2023-01-23T00:21:34.748Z,72.59
2023-01-23T00:24:06.301Z,66.33
2023-01-23T00:26:36.714Z,67.93
2023-01-23T00:29:08.196Z,69.16
2023-01-23T00:31:41.146Z,70.94
2023-01-23T00:34:16.190Z,65.86
2023-01-23T00:36:47.713Z,68.51
2023-01-23T00:39:21.977Z,71.29
2023-01-23T00:41:53.301Z,67.95
2023-01-23T00:44:24.535Z,63.40
2023-01-23T00:46:55.572Z,60.55
2023-01-23T00:49:28.692Z,59.48
2023-01-23T00:51:59.850Z,61.59
2023-01-23T00:54:31.924Z,57.34
2023-01-23T00:57:03.016Z,59.74
2023-01-23T00:59:33.570Z,60.74
2023-01-23T01:02:04.658Z,59.93
2023-01-23T01:04:35.927Z,59.27
2023-01-23T01:07:07.060Z,51.80
2023-01-23T01:09:37.467Z,50.88
2023-01-23T01:12:08.847Z,53.45
2023-01-23T01:14:41.316Z,52.33
2023-01-23T01:17:12.352Z,50.15
2023-01-23T01:19:43.236Z,52.36
2023-01-23T01:22:14.126Z,56.17
2023-01-23T01:24:45.539Z,54.38
2023-01-23T01:27:16.641Z,55.12
2023-01-23T01:29:47.871Z,52.06
2023-01-23T01:32:18.972Z,50.37
2023-01-23T01:34:54.193Z,50.57
2023-01-23T01:37:26.680Z,50.76
2023-01-23T01:39:57.855Z,50.45
2023-01-23T01:42:30.184Z,50.52
2023-01-23T01:45:03.049Z,50.95
2023-01-23T01:47:34.035Z,56.99
2023-01-23T01:50:05.594Z,51.56
2023-01-23T01:52:36.503Z,47.30
2023-01-23T01:55:07.388Z,49.24
2023-01-23T01:57:42.314Z,47.31
2023-01-23T02:00:17.479Z,49.19
2023-01-23T02:03:04.199Z,52.85
2023-01-23T02:05:40.534Z,48.57
2023-01-23T02:08:43.921Z,48.56
2023-01-23T02:11:16.609Z,47.52
2023-01-23T02:13:47.939Z,47.50
2023-01-23T02:16:23.874Z,50.65
2023-01-23T02:18:58.968Z,50.06
2023-01-23T02:21:31.073Z,49.39
2023-01-23T02:24:16.809Z,50.06
2023-01-23T02:26:48.789Z,48.78
2023-01-23T02:29:21.769Z,47.79
2023-01-23T02:31:58.147Z,50.36
2023-01-23T02:34:29.877Z,49.15
2023-01-23T02:37:04.472Z,48.70
2023-01-23T02:39:34.835Z,45.96
2023-01-23T02:42:06.229Z,49.94
2023-01-23T02:44:49.515Z,51.69
2023-01-23T02:47:22.600Z,48.91
2023-01-23T02:49:53.701Z,49.27
2023-01-23T02:52:25.673Z,49.95
2023-01-23T02:54:56.998Z,50.19
2023-01-23T02:57:28.757Z,46.95
2023-01-23T03:00:17.940Z,48.67
2023-01-23T03:02:50.877Z,47.22
2023-01-23T03:05:22.284Z,45.66
2023-01-23T03:07:56.109Z,46.20
2023-01-23T03:10:27.263Z,46.26
2023-01-23T03:13:03.500Z,46.54
2023-01-23T03:15:43.719Z,48.16
2023-01-23T03:18:14.778Z,48.61
2023-01-23T03:20:46.037Z,48.87
2023-01-23T03:23:18.237Z,51.41
2023-01-23T03:25:50.504Z,49.58
2023-01-23T03:28:39.613Z,50.90
2023-01-23T03:31:11.262Z,49.18
2023-01-23T03:33:44.725Z,47.89
2023-01-23T03:36:17.445Z,47.75
2023-01-23T03:39:06.386Z,48.98
2023-01-23T03:41:39.619Z,50.39
2023-01-23T03:44:11.586Z,50.16
2023-01-23T03:46:43.927Z,51.26
2023-01-23T03:49:15.262Z,48.96
2023-01-23T03:51:46.827Z,52.73
2023-01-23T03:54:20.694Z,56.18
2023-01-23T03:56:51.797Z,53.71
2023-01-23T03:59:41.036Z,54.65
2023-01-23T04:02:11.557Z,58.19
2023-01-23T04:04:43.194Z,58.64
2023-01-23T04:07:14.472Z,60.56
2023-01-23T04:09:47.365Z,61.89
2023-01-23T04:12:18.636Z,64.51
2023-01-23T04:14:52.164Z,62.35
2023-01-23T04:17:22.625Z,62.33
2023-01-23T04:19:54.918Z,66.85
2023-01-23T04:22:25.894Z,64.18
2023-01-23T04:24:56.961Z,64.42
2023-01-23T04:27:28.012Z,63.20
2023-01-23T04:30:00.458Z,62.05
2023-01-23T04:32:32.959Z,60.96
2023-01-23T04:35:06.998Z,63.57
2023-01-23T04:37:40.847Z,57.67
2023-01-23T04:40:13.382Z,61.79
2023-01-23T04:42:54.458Z,60.64
2023-01-23T04:45:38.577Z,61.45
2023-01-23T04:48:30.402Z,65.26
2023-01-23T04:51:02.010Z,64.38
2023-01-23T04:53:33.595Z,64.64
2023-01-23T04:56:06.126Z,63.52
2023-01-23T04:58:37.444Z,59.96
2023-01-23T05:01:10.013Z,63.16
2023-01-23T05:03:41.299Z,63.81
2023-01-23T05:06:12.767Z,66.16
2023-01-23T05:08:43.914Z,72.89
2023-01-23T05:11:22.821Z,76.57
2023-01-23T05:13:54.210Z,79.24
2023-01-23T05:16:25.026Z,82.57
2023-01-23T05:19:13.809Z,89.67
2023-01-23T05:21:46.072Z,87.58
2023-01-23T05:24:23.378Z,86.26
2023-01-23T05:26:54.861Z,88.81
2023-01-23T05:29:27.651Z,88.93
2023-01-23T05:32:14.727Z,93.32
2023-01-23T05:35:01.980Z,96.96
2023-01-23T05:37:34.682Z,95.79
2023-01-23T05:40:10.765Z,93.11
2023-01-23T05:42:59.969Z,92.35
2023-01-23T05:45:50.854Z,95.37
2023-01-23T05:48:35.643Z,98.05
2023-01-23T05:51:11.976Z,100.00
2023-01-23T05:53:43.415Z,99.42
2023-01-23T05:56:14.690Z,100.00
2023-01-23T05:59:06.778Z,100.00
2023-01-23T06:01:53.097Z,100.00
2023-01-23T06:04:42.525Z,100.00
2023-01-23T06:07:26.505Z,100.00
2023-01-23T06:10:00.543Z,100.00
2023-01-23T06:12:33.178Z,100.00
2023-01-23T06:15:04.341Z,100.00
2023-01-23T06:17:36.352Z,100.00
2023-01-23T06:20:07.492Z,100.00
2023-01-23T06:22:38.841Z,100.00
2023-01-23T06:25:14.473Z,100.00
2023-01-23T06:27:45.609Z,100.00
2023-01-23T06:30:17.983Z,100.00
2023-01-23T06:32:50.569Z,100.00
2023-01-23T06:35:25.145Z,100.00
2023-01-23T06:37:56.089Z,100.00
2023-01-23T06:40:28.024Z,100.00
2023-01-23T06:43:11.327Z,100.00
2023-01-23T06:45:55.920Z,100.00
2023-01-23T06:48:28.053Z,100.00
2023-01-23T06:51:02.442Z,100.00
2023-01-23T06:53:34.376Z,100.00
2023-01-23T06:56:08.268Z,100.00
2023-01-23T06:58:41.395Z,100.00
2023-01-23T07:01:21.428Z,100.00
2023-01-23T07:04:15.376Z,100.00
2023-01-23T07:06:47.873Z,100.00
2023-01-23T07:09:21.538Z,100.00
2023-01-23T07:12:05.719Z,100.00
2023-01-23T07:14:37.457Z,100.00
2023-01-23T07:17:10.747Z,100.00
2023-01-23T07:19:41.699Z,100.00
2023-01-23T07:22:20.249Z,100.00
2023-01-23T07:24:51.420Z,100.00
2023-01-23T07:27:22.527Z,100.00
2023-01-23T07:29:53.921Z,100.00
2023-01-23T07:32:25.228Z,100.00
2023-01-23T07:34:56.173Z,100.00
2023-01-23T07:37:27.118Z,100.00
2023-01-23T07:39:58.045Z,100.00
2023-01-23T07:42:29.476Z,100.00
2023-01-23T07:45:00.661Z,100.00
2023-01-23T07:47:32.903Z,100.00
2023-01-23T07:50:04.134Z,100.00
2023-01-23T07:52:35.880Z,100.00
2023-01-23T07:55:07.698Z,100.00
2023-01-23T07:57:38.858Z,100.00
2023-01-23T08:00:11.219Z,100.00
2023-01-23T08:02:44.855Z,100.00
2023-01-23T08:05:15.896Z,100.00
2023-01-23T08:07:46.856Z,100.00
2023-01-23T08:10:18.282Z,100.00
2023-01-23T08:12:49.609Z,100.00
2023-01-23T08:15:20.737Z,100.00
2023-01-23T08:17:51.878Z,100.00
2023-01-23T08:20:24.500Z,100.00
2023-01-23T08:22:55.570Z,100.00
2023-01-23T08:25:26.799Z,100.00
2023-01-23T08:27:57.745Z,100.00
2023-01-23T08:30:28.921Z,100.00
2023-01-23T08:33:00.141Z,100.00
2023-01-23T08:35:31.099Z,100.00
2023-01-23T08:38:03.891Z,100.00
2023-01-23T08:40:35.025Z,100.00
2023-01-23T08:43:06.369Z,100.00
2023-01-23T08:45:37.280Z,100.00
2023-01-23T08:48:08.950Z,100.00
2023-01-23T08:50:40.053Z,100.00
2023-01-23T08:53:10.923Z,100.00
2023-01-23T08:55:42.336Z,100.00
2023-01-23T08:58:14.585Z,100.00
2023-01-23T09:00:45.685Z,100.00
2023-01-23T09:03:16.877Z,100.00
2023-01-23T09:05:47.976Z,100.00
2023-01-23T09:08:20.085Z,100.00
2023-01-23T09:10:51.025Z,100.00
2023-01-23T09:13:22.173Z,100.00
2023-01-23T09:15:53.599Z,100.00
2023-01-23T09:18:26.327Z,100.00
2023-01-23T09:20:57.806Z,100.00
2023-01-23T09:23:29.377Z,100.00
2023-01-23T09:26:04.353Z,100.00
2023-01-23T09:28:35.621Z,100.00
2023-01-23T09:31:09.102Z,100.00
2023-01-23T09:33:39.989Z,100.00
2023-01-23T09:36:11.634Z,100.00
2023-01-23T09:38:42.940Z,100.00
2023-01-23T09:41:23.463Z,100.00
2023-01-23T09:44:08.840Z,100.00
2023-01-23T09:47:03.692Z,100.00
2023-01-23T09:50:07.056Z,100.00
2023-01-23T09:53:01.090Z,100.00
2023-01-23T09:55:46.968Z,100.00
2023-01-23T09:58:33.250Z,100.00
2023-01-23T10:01:04.367Z,100.00
2023-01-23T10:03:35.466Z,100.00
2023-01-23T10:06:15.203Z,100.00
2023-01-23T10:09:06.260Z,100.00
2023-01-23T10:11:58.349Z,100.00
2023-01-23T10:14:49.872Z,100.00
2023-01-23T10:17:33.066Z,100.00
2023-01-23T10:20:22.424Z,100.00
2023-01-23T10:23:09.350Z,100.00
2023-01-23T10:25:42.438Z,100.00
2023-01-23T10:28:16.258Z,100.00
2023-01-23T10:30:52.046Z,100.00
2023-01-23T10:33:23.225Z,100.00
2023-01-23T10:35:58.406Z,100.00
2023-01-23T10:38:35.575Z,100.00
2023-01-23T10:41:19.917Z,100.00
2023-01-23T10:43:56.491Z,100.00
2023-01-23T10:46:39.696Z,100.00
2023-01-23T10:49:10.731Z,100.00
2023-01-23T10:51:49.255Z,100.00
2023-01-23T10:54:31.867Z,100.00
2023-01-23T10:57:24.341Z,100.00
2023-01-23T10:59:58.652Z,100.00
2023-01-23T11:02:42.235Z,100.00
2023-01-23T11:05:50.714Z,100.00
2023-01-23T11:08:34.873Z,100.00
2023-01-23T11:11:17.584Z,100.00
2023-01-23T11:13:52.599Z,100.00
2023-01-23T11:16:24.983Z,100.00
2023-01-23T11:19:07.616Z,100.00
2023-01-23T11:21:41.143Z,100.00
2023-01-23T11:24:40.278Z,100.00
2023-01-23T11:27:22.357Z,100.00
2023-01-23T11:30:02.589Z,100.00
2023-01-23T11:32:35.699Z,100.00
2023-01-23T11:35:19.812Z,100.00
2023-01-23T11:37:51.381Z,100.00
2023-01-23T11:40:22.848Z,100.00
2023-01-23T11:42:54.124Z,100.00
2023-01-23T11:45:24.740Z,100.00
2023-01-23T11:48:14.068Z,100.00
2023-01-23T11:51:03.006Z,100.00
2023-01-23T11:53:50.446Z,100.00
2023-01-23T11:56:39.505Z,100.00
2023-01-23T11:59:15.789Z,100.00
2023-01-23T12:02:15.083Z,100.00
2023-01-23T12:05:27.823Z,100.00
2023-01-23T12:08:34.805Z,100.00
2023-01-23T12:11:18.109Z,100.00
2023-01-23T12:14:14.959Z,100.00
2023-01-23T12:16:51.464Z,100.00
2023-01-23T12:19:42.244Z,100.00
2023-01-23T12:22:44.476Z,100.00
2023-01-23T12:25:37.621Z,100.00
2023-01-23T12:28:18.111Z,100.00
2023-01-23T12:31:21.559Z,100.00
2023-01-23T12:33:57.544Z,100.00
2023-01-23T12:37:10.208Z,100.00
2023-01-23T12:40:00.004Z,100.00
2023-01-23T12:42:55.639Z,100.00
2023-01-23T12:45:29.564Z,100.00
2023-01-23T12:48:38.610Z,100.00
2023-01-23T12:51:25.639Z,100.00
2023-01-23T12:53:58.653Z,100.00
2023-01-23T12:56:36.041Z,100.00
2023-01-23T12:59:28.039Z,100.00
2023-01-23T13:02:17.633Z,100.00
2023-01-23T13:05:02.541Z,100.00
2023-01-23T13:08:09.684Z,100.00
2023-01-23T13:11:07.823Z,100.00
2023-01-23T13:13:38.910Z,100.00
2023-01-23T13:16:15.822Z,100.00
2023-01-23T13:19:18.519Z,100.00
2023-01-23T13:22:31.453Z,100.00
2023-01-23T13:25:25.114Z,100.00
2023-01-23T13:28:46.225Z,100.00
2023-01-23T13:31:36.102Z,100.00
2023-01-23T13:34:19.393Z,100.00
2023-01-23T13:36:55.037Z,100.00
2023-01-23T13:39:29.388Z,100.00
2023-01-23T13:42:16.021Z,100.00
2023-01-23T13:45:20.733Z,100.00
2023-01-23T14:27:44.439Z,100.00
2023-01-23T14:30:27.781Z,100.00
2023-01-23T14:33:00.487Z,100.00
2023-01-23T14:35:33.927Z,100.00
2023-01-23T14:38:08.640Z,100.00
2023-01-23T14:40:51.140Z,100.00
2023-01-23T14:43:29.698Z,100.00
2023-01-23T14:46:15.994Z,100.00
2023-01-23T14:48:51.941Z,100.00
2023-01-23T14:51:28.639Z,100.00
2023-01-23T14:54:00.893Z,100.00
2023-01-23T14:56:40.088Z,100.00
2023-01-23T14:59:23.015Z,100.00
2023-01-23T15:02:10.197Z,100.00
2023-01-23T15:05:26.384Z,100.00
2023-01-23T15:08:20.958Z,100.00
2023-01-23T15:10:53.999Z,100.00
2023-01-23T15:13:49.106Z,100.00
2023-01-23T15:16:25.796Z,100.00
2023-01-23T15:19:01.151Z,100.00
2023-01-23T15:21:39.416Z,100.00
2023-01-23T15:24:16.649Z,100.00
2023-01-23T15:26:58.412Z,100.00
2023-01-23T15:29:28.841Z,100.00
2023-01-23T15:32:00.998Z,100.00
2023-01-23T15:34:36.625Z,100.00
2023-01-23T15:37:12.041Z,100.00
2023-01-23T15:39:48.987Z,100.00
2023-01-23T15:42:20.007Z,100.00
2023-01-23T15:44:54.711Z,100.00
2023-01-23T15:47:26.095Z,100.00
2023-01-23T15:49:57.744Z,100.00
2023-01-23T15:52:31.609Z,100.00
2023-01-23T15:55:05.742Z,100.00
2023-01-23T15:57:36.972Z,100.00
2023-01-23T16:00:26.789Z,100.00
2023-01-23T16:02:59.398Z,100.00
2023-01-23T16:05:34.812Z,100.00
2023-01-23T16:08:07.619Z,100.00
2023-01-23T16:10:41.776Z,100.00
2023-01-23T16:13:15.303Z,100.00
2023-01-23T16:15:46.302Z,100.00
2023-01-23T16:18:17.796Z,100.00
2023-01-23T16:20:48.970Z,100.00
2023-01-23T16:23:31.252Z,100.00
2023-01-23T16:26:07.178Z,100.00
2023-01-23T16:28:38.463Z,100.00
2023-01-23T16:31:10.878Z,100.00
2023-01-23T16:33:42.229Z,100.00
2023-01-23T16:36:20.315Z,100.00
2023-01-23T16:38:57.788Z,100.00
2023-01-23T16:41:28.581Z,100.00
2023-01-23T16:43:59.512Z,100.00
2023-01-23T16:46:30.660Z,100.00
2023-01-23T16:49:01.793Z,100.00
2023-01-23T16:51:33.482Z,100.00
2023-01-23T16:54:17.646Z,100.00
2023-01-23T16:56:54.189Z,100.00
2023-01-23T16:59:37.479Z,100.00
2023-01-23T17:02:19.495Z,100.00
2023-01-23T17:04:51.099Z,100.00
2023-01-23T17:07:22.919Z,100.00
2023-01-23T17:09:54.360Z,100.00
2023-01-23T17:12:31.319Z,100.00
2023-01-23T17:15:05.003Z,100.00
2023-01-23T17:17:37.301Z,100.00
2023-01-23T17:20:09.173Z,100.00
2023-01-23T17:22:40.707Z,100.00
2023-01-23T17:25:18.502Z,100.00
2023-01-23T17:28:03.616Z,100.00
2023-01-23T17:30:43.633Z,100.00
2023-01-23T17:33:29.782Z,100.00
2023-01-23T17:36:04.729Z,100.00
2023-01-23T17:38:36.686Z,100.00
2023-01-23T17:41:08.351Z,100.00
2023-01-23T17:43:40.560Z,100.00
2023-01-23T17:46:16.539Z,100.00
2023-01-23T17:48:47.776Z,100.00
2023-01-23T17:51:22.427Z,100.00
2023-01-23T17:53:53.503Z,100.00
2023-01-23T17:56:24.461Z,100.00
2023-01-23T17:58:55.821Z,100.00
2023-01-23T18:01:27.736Z,100.00
2023-01-23T18:03:58.946Z,100.00
2023-01-23T18:06:30.579Z,100.00
2023-01-23T18:09:02.158Z,100.00
2023-01-23T18:11:33.326Z,100.00
2023-01-23T18:14:34.158Z,100.00
2023-01-23T18:17:23.293Z,100.00
2023-01-23T18:19:55.423Z,100.00
2023-01-23T18:22:27.108Z,100.00
2023-01-23T18:24:58.161Z,100.00
2023-01-23T18:27:29.577Z,100.00
2023-01-23T18:30:22.765Z,100.00
2023-01-23T18:33:07.139Z,100.00
2023-01-23T18:35:45.098Z,100.00
2023-01-23T18:38:32.979Z,100.00
2023-01-23T18:41:23.364Z,100.00
2023-01-23T18:44:06.424Z,100.00
2023-01-23T18:46:37.649Z,100.00
2023-01-23T18:49:09.179Z,100.00
2023-01-23T18:51:44.948Z,100.00
2023-01-23T18:54:27.510Z,100.00
2023-01-23T18:57:18.565Z,100.00
2023-01-23T19:00:02.801Z,100.00
2023-01-23T19:02:54.766Z,100.00
2023-01-23T19:05:34.154Z,100.00
2023-01-23T19:08:05.469Z,100.00
2023-01-23T19:10:48.531Z,100.00
2023-01-23T19:13:43.555Z,100.00
2023-01-23T19:16:30.942Z,100.00
2023-01-23T19:19:20.576Z,100.00
2023-01-23T19:21:51.687Z,100.00
2023-01-23T19:24:22.964Z,100.00
2023-01-23T19:26:55.645Z,100.00
2023-01-23T19:29:26.808Z,100.00
2023-01-23T19:32:06.250Z,100.00
2023-01-23T19:34:37.485Z,100.00
2023-01-23T19:37:09.569Z,100.00
2023-01-23T19:39:40.694Z,100.00
2023-01-23T19:42:16.551Z,100.00
2023-01-23T19:44:47.458Z,100.00
2023-01-23T19:47:18.682Z,100.00
2023-01-23T19:49:50.057Z,100.00
2023-01-23T19:52:21.412Z,100.00
2023-01-23T19:54:52.645Z,100.00
2023-01-23T19:57:23.695Z,100.00
2023-01-23T19:59:54.754Z,100.00
2023-01-23T20:02:25.975Z,100.00
2023-01-23T20:04:59.134Z,100.00
2023-01-23T20:07:30.293Z,100.00
2023-01-23T20:10:01.310Z,100.00
2023-01-23T20:12:33.331Z,100.00
2023-01-23T20:15:04.389Z,100.00
2023-01-23T20:17:35.220Z,100.00
2023-01-23T20:20:10.118Z,100.00
2023-01-23T20:22:41.827Z,100.00
2023-01-23T20:25:18.014Z,100.00
2023-01-23T20:27:49.076Z,100.00
2023-01-23T20:30:21.750Z,100.00
2023-01-23T20:32:53.214Z,100.00
2023-01-23T20:35:24.789Z,100.00
2023-01-23T20:37:55.442Z,100.00
2023-01-23T20:40:26.627Z,100.00
2023-01-23T20:42:57.503Z,100.00
2023-01-23T20:45:28.885Z,100.00
2023-01-23T20:48:00.018Z,100.00
2023-01-23T20:50:30.888Z,100.00
2023-01-23T20:53:19.879Z,100.00
2023-01-23T20:56:01.891Z,100.00
2023-01-23T20:58:52.195Z,100.00
2023-01-23T21:01:24.767Z,100.00
2023-01-23T21:03:56.512Z,100.00
2023-01-23T21:06:27.666Z,100.00
2023-01-23T21:08:58.767Z,100.00
2023-01-23T21:11:30.311Z,100.00
2023-01-23T21:14:02.595Z,100.00
2023-01-23T21:16:34.166Z,100.00
2023-01-23T21:19:05.255Z,100.00
2023-01-23T21:21:36.550Z,100.00
2023-01-23T21:24:08.112Z,100.00
2023-01-23T21:26:39.431Z,100.00
2023-01-23T21:29:10.993Z,100.00
2023-01-23T21:31:42.452Z,100.00
2023-01-23T21:34:14.117Z,100.00
2023-01-23T21:36:45.741Z,100.00
2023-01-23T21:39:17.407Z,100.00
2023-01-23T21:41:48.637Z,100.00
2023-01-23T21:44:19.702Z,100.00
2023-01-23T21:46:51.451Z,100.00
2023-01-23T21:49:22.866Z,100.00
2023-01-23T21:51:53.802Z,100.00
2023-01-23T21:54:24.703Z,100.00
2023-01-23T21:56:55.920Z,100.00
2023-01-23T21:59:26.948Z,100.00
2023-01-23T22:01:58.317Z,100.00
2023-01-23T22:04:30.327Z,100.00
2023-01-23T22:07:01.372Z,100.00
2023-01-23T22:09:32.741Z,100.00
2023-01-23T22:12:03.823Z,100.00
2023-01-23T22:14:35.688Z,100.00
2023-01-23T22:17:09.400Z,100.00
2023-01-23T22:19:40.476Z,100.00
2023-01-23T22:22:11.569Z,100.00
2023-01-23T22:24:42.619Z,100.00
2023-01-23T22:27:13.705Z,100.00
2023-01-23T22:29:45.240Z,100.00
2023-01-23T22:32:16.349Z,100.00
2023-01-23T22:34:47.567Z,100.00
2023-01-23T22:37:19.683Z,100.00
2023-01-23T22:39:51.729Z,100.00
2023-01-23T22:42:22.721Z,100.00
2023-01-23T22:44:53.909Z,100.00
2023-01-23T22:47:25.024Z,100.00
2023-01-23T22:49:56.407Z,100.00
2023-01-23T22:52:27.502Z,100.00
2023-01-23T22:54:58.507Z,100.00
2023-01-23T22:57:29.619Z,100.00
2023-01-23T23:00:00.668Z,100.00
2023-01-23T23:02:33.578Z,100.00
2023-01-23T23:05:04.526Z,100.00
2023-01-23T23:07:39.279Z,100.00
2023-01-23T23:10:12.655Z,100.00
2023-01-23T23:12:44.065Z,100.00
2023-01-23T23:15:17.367Z,100.00
2023-01-23T23:17:48.354Z,100.00
2023-01-23T23:20:19.824Z,100.00
2023-01-23T23:22:51.068Z,100.00
2023-01-23T23:25:22.589Z,100.00
2023-01-23T23:27:53.799Z,100.00
2023-01-23T23:30:25.255Z,100.00
2023-01-23T23:32:56.367Z,100.00
2023-01-23T23:35:27.575Z,100.00
2023-01-23T23:37:58.190Z,100.00
2023-01-23T23:40:29.165Z,100.00
2023-01-23T23:43:00.205Z,100.00
2023-01-23T23:45:31.553Z,100.00
2023-01-23T23:48:03.635Z,100.00
2023-01-23T23:50:35.361Z,100.00
2023-01-23T23:53:05.780Z,100.00
2023-01-23T23:55:36.890Z,100.00
2023-01-23T23:58:08.100Z,100.00
